createdAt,value
2022-09-06T00:00:44.999Z,101034.13
2022-09-06T00:03:11.759Z,101027.44
2022-09-06T00:05:39.109Z,101009.09
2022-09-06T00:08:06.730Z,100994.09
2022-09-06T00:10:34.385Z,101013.81
2022-09-06T00:13:06.083Z,101045.72
2022-09-06T00:15:33.972Z,101031.94
2022-09-06T00:18:06.659Z,101051.88
2022-09-06T00:20:34.873Z,101048.75
2022-09-06T00:23:04.363Z,101038.44
2022-09-06T00:25:31.686Z,101038.91
2022-09-06T00:28:00.647Z,101054.53
2022-09-06T00:30:28.886Z,101053.69
2022-09-06T00:32:56.603Z,101035.31
2022-09-06T00:35:27.116Z,101016.38
2022-09-06T00:37:59.240Z,101050.81
2022-09-06T00:40:26.863Z,101052.34
2022-09-06T00:42:53.622Z,101048.38
2022-09-06T00:45:20.979Z,101051.13
2022-09-06T00:47:48.110Z,101054.34
2022-09-06T00:50:17.866Z,101056.50
2022-09-06T00:52:47.652Z,101047.31
2022-09-06T00:55:15.195Z,101049.59
2022-09-06T00:57:42.403Z,101021.59
2022-09-06T01:00:10.142Z,101023.88
2022-09-06T01:02:37.010Z,101016.44
2022-09-06T01:05:05.606Z,101045.94
2022-09-06T01:07:38.384Z,101066.91
2022-09-06T01:10:20.283Z,101060.56
2022-09-06T01:12:58.844Z,101059.84
2022-09-06T01:15:42.655Z,101034.69
2022-09-06T01:18:28.201Z,101062.84
2022-09-06T01:21:10.669Z,101054.72
2022-09-06T01:23:59.260Z,101059.06
2022-09-06T01:26:44.668Z,101053.13
2022-09-06T01:29:22.401Z,101039.59
2022-09-06T01:31:57.022Z,101052.72
2022-09-06T01:34:47.961Z,101044.13
2022-09-06T01:37:19.954Z,101055.28
2022-09-06T01:39:46.730Z,101037.41
2022-09-06T01:42:22.163Z,101041.22
2022-09-06T01:44:54.488Z,101056.78
2022-09-06T01:47:36.422Z,101040.44
2022-09-06T01:50:08.934Z,101054.34
2022-09-06T01:52:40.847Z,101044.13
2022-09-06T01:55:17.039Z,101010.47
2022-09-06T01:58:07.059Z,101053.13
2022-09-06T02:00:43.168Z,101038.75
2022-09-06T02:03:24.703Z,101042.16
2022-09-06T02:05:56.214Z,101011.22
2022-09-06T02:08:29.927Z,101043.47
2022-09-06T02:11:01.701Z,101038.75
2022-09-06T02:13:38.732Z,101002.06
2022-09-06T02:16:08.175Z,101010.19
2022-09-06T02:18:47.910Z,100975.78
2022-09-06T02:21:18.563Z,101026.34
2022-09-06T02:23:47.667Z,100976.09
2022-09-06T02:26:19.129Z,101027.97
2022-09-06T02:28:46.190Z,100996.19
2022-09-06T02:31:22.504Z,101020.56
2022-09-06T02:33:51.191Z,101014.91
2022-09-06T02:36:18.871Z,100999.69
2022-09-06T02:38:46.435Z,101006.88
2022-09-06T02:41:16.128Z,101009.06
2022-09-06T02:43:43.714Z,101003.75
2022-09-06T02:46:11.110Z,101002.81
2022-09-06T02:48:37.841Z,100966.06
2022-09-06T02:51:09.248Z,101006.81
2022-09-06T02:53:36.622Z,100999.03
2022-09-06T02:56:03.913Z,100999.22
2022-09-06T02:58:31.221Z,100995.34
2022-09-06T03:00:58.032Z,100982.78
2022-09-06T03:03:25.142Z,100955.16
2022-09-06T03:05:53.366Z,100944.13
2022-09-06T03:08:22.253Z,100988.53
2022-09-06T03:10:54.511Z,100983.50
2022-09-06T03:13:21.382Z,100971.06
2022-09-06T03:15:52.725Z,100972.56
2022-09-06T03:18:20.188Z,100977.78
2022-09-06T03:20:49.991Z,100977.19
2022-09-06T03:23:18.042Z,100962.69
2022-09-06T03:25:44.997Z,100972.59
2022-09-06T03:28:12.949Z,100988.25
2022-09-06T03:30:40.297Z,100984.38
2022-09-06T03:33:07.420Z,100969.72
2022-09-06T03:35:34.204Z,100980.81
2022-09-06T03:38:00.971Z,100974.09
2022-09-06T03:40:27.795Z,101012.09
2022-09-06T03:42:54.640Z,101018.78
2022-09-06T03:45:21.483Z,100982.97
2022-09-06T03:47:48.135Z,100989.59
2022-09-06T03:50:14.923Z,100984.75
2022-09-06T03:52:41.659Z,101026.66
2022-09-06T03:55:08.916Z,101007.75
2022-09-06T03:57:35.702Z,100991.78
2022-09-06T04:00:02.718Z,100987.31
2022-09-06T04:02:29.444Z,101020.69
2022-09-06T04:04:56.183Z,101024.56
2022-09-06T04:07:23.624Z,101025.34
2022-09-06T04:09:50.310Z,100986.09
2022-09-06T04:12:17.115Z,100990.25
2022-09-06T04:14:43.796Z,100969.72
2022-09-06T04:17:10.605Z,100938.97
2022-09-06T04:19:37.255Z,100964.59
2022-09-06T04:22:03.970Z,100964.41
2022-09-06T04:24:30.647Z,100987.38
2022-09-06T04:26:57.315Z,100984.06
2022-09-06T04:29:24.806Z,100977.19
2022-09-06T04:31:51.566Z,100959.16
2022-09-06T04:34:19.830Z,100941.53
2022-09-06T04:36:48.418Z,100941.06
2022-09-06T04:39:15.448Z,100958.47
2022-09-06T04:41:42.757Z,100975.81
2022-09-06T04:44:09.505Z,100967.69
2022-09-06T04:46:36.350Z,100943.47
2022-09-06T04:49:03.554Z,100962.47
2022-09-06T04:51:31.703Z,100952.66
2022-09-06T04:53:58.419Z,100956.81
2022-09-06T04:56:26.886Z,100933.63
2022-09-06T04:58:55.515Z,100926.94
2022-09-06T05:01:22.812Z,100948.09
2022-09-06T05:03:50.351Z,100908.53
2022-09-06T05:06:21.517Z,100932.41
2022-09-06T05:08:49.145Z,100938.19
2022-09-06T05:11:16.688Z,100961.91
2022-09-06T05:13:43.401Z,100934.22
2022-09-06T05:16:10.460Z,100937.06
2022-09-06T05:18:37.244Z,100960.25
2022-09-06T05:21:04.558Z,100961.25
2022-09-06T05:23:31.229Z,100919.81
2022-09-06T05:25:57.920Z,100927.56
2022-09-06T05:28:24.787Z,100924.94
2022-09-06T05:30:51.588Z,100907.38
2022-09-06T05:33:22.922Z,100965.31
2022-09-06T05:35:50.246Z,100964.56
2022-09-06T05:38:17.010Z,100925.69
2022-09-06T05:40:43.992Z,100947.03
2022-09-06T05:43:10.821Z,100946.00
2022-09-06T05:45:37.693Z,100949.78
2022-09-06T05:48:04.852Z,100975.00
2022-09-06T05:50:31.641Z,100950.44
2022-09-06T05:52:58.459Z,100946.28
2022-09-06T05:55:25.543Z,100944.56
2022-09-06T05:57:52.257Z,100939.16
2022-09-06T06:00:19.200Z,100947.59
2022-09-06T06:02:49.999Z,100905.00
2022-09-06T06:05:17.049Z,100941.38
2022-09-06T06:07:43.788Z,100904.63
2022-09-06T06:10:11.018Z,100941.94
2022-09-06T06:12:37.984Z,100953.50
2022-09-06T06:15:05.889Z,100951.38
2022-09-06T06:17:33.271Z,100953.81
2022-09-06T06:20:00.312Z,100949.66
2022-09-06T06:22:27.514Z,100940.19
2022-09-06T06:24:54.211Z,100931.63
2022-09-06T06:27:20.901Z,100922.44
2022-09-06T06:29:47.620Z,100922.84
2022-09-06T06:32:14.470Z,100963.63
2022-09-06T06:34:41.211Z,100920.34
2022-09-06T06:37:07.889Z,100930.03
2022-09-06T06:39:34.768Z,100920.94
2022-09-06T06:42:01.555Z,100909.31
2022-09-06T06:44:28.530Z,100929.22
2022-09-06T06:46:58.042Z,100897.06
2022-09-06T06:49:25.399Z,100931.16
2022-09-06T06:51:52.128Z,100959.03
2022-09-06T06:54:18.943Z,100967.38
2022-09-06T06:56:46.054Z,100968.88
2022-09-06T06:59:12.891Z,100939.69
2022-09-06T07:01:39.994Z,100972.09
2022-09-06T07:04:08.956Z,100998.94
2022-09-06T07:12:24.166Z,100957.81
2022-09-06T07:14:51.176Z,100945.91
2022-09-06T07:17:17.905Z,100965.50
2022-09-06T07:22:31.463Z,100985.13
2022-09-06T07:24:58.454Z,100980.88
2022-09-06T07:30:14.589Z,100966.44
2022-09-06T07:32:41.350Z,100947.44
2022-09-06T07:35:08.676Z,100974.53
2022-09-06T07:37:35.656Z,100972.25
2022-09-06T07:40:03.597Z,100984.47
2022-09-06T07:42:36.413Z,100997.41
2022-09-06T07:45:03.825Z,101001.72
2022-09-06T07:55:34.083Z,100980.78
2022-09-06T07:58:00.871Z,100976.31
2022-09-06T08:00:28.168Z,100955.03
2022-09-06T08:02:55.011Z,100980.28
2022-09-06T08:10:56.048Z,100962.41
2022-09-06T08:13:23.081Z,100952.34
2022-09-06T08:15:50.478Z,100962.06
2022-09-06T08:18:17.686Z,100951.47
2022-09-06T08:20:44.606Z,100972.38
2022-09-06T08:23:11.399Z,100970.28
2022-09-06T08:25:38.176Z,100994.78
2022-09-06T08:28:05.136Z,100961.41
2022-09-06T08:30:33.479Z,100950.91
2022-09-06T08:33:00.349Z,100918.84
2022-09-06T08:40:49.108Z,100976.78
2022-09-06T08:43:20.685Z,100976.81
2022-09-06T08:45:56.655Z,100967.22
2022-09-06T08:48:28.865Z,101014.69
2022-09-06T08:51:07.028Z,101002.47
2022-09-06T08:53:39.665Z,100995.97
2022-09-06T08:56:17.141Z,101018.59
2022-09-06T08:59:06.697Z,101029.47
2022-09-06T09:02:09.163Z,101029.09
2022-09-06T09:04:42.387Z,101037.69
2022-09-06T09:07:48.078Z,101015.00
2022-09-06T09:10:21.700Z,101029.97
2022-09-06T09:12:50.273Z,100995.81
2022-09-06T09:15:19.521Z,101027.19
2022-09-06T09:17:49.479Z,100963.59
2022-09-06T09:20:17.239Z,101017.09
2022-09-06T09:22:44.819Z,101023.34
2022-09-06T09:25:23.382Z,100991.13
2022-09-06T09:27:57.925Z,101007.34
2022-09-06T09:33:23.210Z,101022.84
2022-09-06T09:35:50.776Z,100984.50
2022-09-06T09:38:27.605Z,100990.13
2022-09-06T09:41:00.502Z,101015.19
2022-09-06T09:43:30.775Z,101013.97
2022-09-06T09:46:30.595Z,100978.44
2022-09-06T09:49:05.842Z,101012.63
2022-09-06T09:51:45.052Z,100985.34
2022-09-06T09:54:15.066Z,100982.50
2022-09-06T09:56:47.560Z,101002.81
2022-09-06T09:59:27.489Z,101006.31
2022-09-06T10:02:04.435Z,100989.28
2022-09-06T10:04:43.935Z,100971.16
2022-09-06T10:07:21.035Z,100932.53
2022-09-06T10:10:03.409Z,100962.19
2022-09-06T10:12:42.129Z,100971.25
2022-09-06T10:17:54.418Z,100947.91
2022-09-06T10:20:24.753Z,100942.88
2022-09-06T10:26:09.419Z,100949.03
2022-09-06T10:28:46.320Z,100972.03
2022-09-06T10:40:49.160Z,100940.44
2022-09-06T10:46:17.457Z,100913.16
2022-09-06T10:48:49.888Z,100932.56
2022-09-06T10:51:52.897Z,100895.84
2022-09-06T11:06:13.655Z,100899.38
2022-09-06T11:09:07.775Z,100925.81
2022-09-06T11:11:47.612Z,100921.53
2022-09-06T11:14:15.783Z,100929.44
2022-09-06T11:16:51.384Z,100930.00
2022-09-06T11:19:33.215Z,100921.25
2022-09-06T11:22:18.336Z,100908.66
2022-09-06T11:25:18.510Z,100869.94
2022-09-06T11:27:51.690Z,100897.72
2022-09-06T11:30:21.324Z,100851.13
2022-09-06T11:33:03.678Z,100881.56
2022-09-06T11:35:32.965Z,100853.78
2022-09-06T11:38:03.709Z,100860.88
2022-09-06T11:40:38.520Z,100850.41
2022-09-06T11:43:05.172Z,100883.81
2022-09-06T11:45:50.374Z,100857.22
2022-09-06T11:48:34.462Z,100877.19
2022-09-06T11:51:06.687Z,100875.19
2022-09-06T11:53:59.347Z,100878.56
2022-09-06T11:56:44.780Z,100840.69
2022-09-06T11:59:23.788Z,100875.03
2022-09-06T12:01:56.597Z,100874.44
2022-09-06T12:04:24.309Z,100876.81
2022-09-06T12:07:12.187Z,100852.50
2022-09-06T12:09:44.139Z,100861.81
2022-09-06T12:12:16.192Z,100845.25
2022-09-06T12:14:48.286Z,100833.63
2022-09-06T12:17:14.954Z,100868.31
2022-09-06T12:19:55.475Z,100861.16
2022-09-06T12:22:34.161Z,100849.78
2022-09-06T12:25:02.029Z,100844.16
2022-09-06T12:27:35.387Z,100840.97
2022-09-06T12:30:07.055Z,100834.75
2022-09-06T12:32:38.358Z,100804.06
2022-09-06T12:38:00.102Z,100836.28
2022-09-06T12:40:30.700Z,100792.88
2022-09-06T12:42:58.402Z,100820.53
2022-09-06T12:45:27.619Z,100845.41
2022-09-06T12:48:10.786Z,100852.06
2022-09-06T12:50:37.971Z,100812.88
2022-09-06T12:53:22.686Z,100829.91
2022-09-06T12:56:04.327Z,100802.66
2022-09-06T12:58:31.139Z,100849.28
2022-09-06T13:01:10.320Z,100796.63
2022-09-06T13:03:50.839Z,100859.09
2022-09-06T13:06:26.622Z,100817.09
2022-09-06T13:08:57.340Z,100785.78
2022-09-06T13:11:38.703Z,100832.66
2022-09-06T13:14:23.209Z,100829.44
2022-09-06T13:16:52.494Z,100846.63
2022-09-06T13:19:31.896Z,100834.31
2022-09-06T13:21:59.555Z,100821.38
2022-09-06T13:24:46.342Z,100832.31
2022-09-06T13:27:36.789Z,100822.47
2022-09-06T13:49:55.455Z,100775.31
2022-09-06T13:52:24.558Z,100777.81
2022-09-06T13:54:51.728Z,100784.94
2022-09-06T14:05:28.828Z,100788.66
2022-09-06T14:21:21.778Z,100805.88
2022-09-06T15:39:17.035Z,100685.34
2022-09-06T15:41:45.716Z,100655.78
2022-09-06T15:47:04.198Z,100681.03
2022-09-06T16:14:13.978Z,100701.66
2022-09-06T16:16:42.352Z,100670.38
2022-09-06T16:19:10.585Z,100643.19
2022-09-06T16:21:40.129Z,100652.81
2022-09-06T16:24:09.645Z,100651.97
2022-09-06T16:26:39.722Z,100707.88
2022-09-06T16:29:08.486Z,100692.00
2022-09-06T16:31:40.052Z,100648.03
2022-09-06T16:34:08.081Z,100664.97
2022-09-06T16:36:35.144Z,100661.28
2022-09-06T16:39:02.156Z,100633.31
2022-09-06T16:41:36.409Z,100672.63
2022-09-06T16:44:03.267Z,100653.03
2022-09-06T16:46:30.208Z,100638.94
2022-09-06T16:49:01.649Z,100666.91
2022-09-06T16:51:29.880Z,100603.38
2022-09-06T16:53:57.086Z,100606.13
2022-09-06T16:56:26.909Z,100651.16
2022-09-06T16:58:56.315Z,100603.78
2022-09-06T17:01:25.632Z,100641.06
2022-09-06T17:03:52.950Z,100613.22
2022-09-06T17:19:54.366Z,100607.59
2022-09-06T17:38:28.611Z,100604.84
2022-09-06T18:27:14.047Z,100498.06
2022-09-06T18:43:39.935Z,100549.47
2022-09-06T18:46:09.668Z,100613.13
2022-09-06T18:48:38.436Z,100598.28
2022-09-06T18:51:11.646Z,100576.59
2022-09-06T18:53:44.467Z,100577.22
2022-09-06T18:56:12.373Z,100606.75
2022-09-06T18:58:39.430Z,100595.31
2022-09-06T19:01:12.507Z,100587.03
2022-09-06T19:03:39.982Z,100597.53
2022-09-06T19:06:20.988Z,100559.97
2022-09-06T19:08:48.736Z,100572.25
2022-09-06T19:11:18.091Z,100586.53
2022-09-06T19:13:46.694Z,100594.28
2022-09-06T19:16:14.139Z,100601.66
2022-09-06T19:18:41.447Z,100613.53
2022-09-06T19:21:09.499Z,100601.91
2022-09-06T19:23:38.992Z,100601.59
2022-09-06T19:26:08.179Z,100595.22
2022-09-06T19:28:36.069Z,100596.59
2022-09-06T19:31:18.982Z,100569.59
2022-09-06T19:33:47.464Z,100579.75
2022-09-06T19:36:15.171Z,100581.34
2022-09-06T19:39:01.876Z,100580.72
2022-09-06T19:41:30.826Z,100590.44
2022-09-06T19:43:58.625Z,100586.22
2022-09-06T19:46:26.831Z,100591.28
2022-09-06T19:48:56.191Z,100585.91
2022-09-06T19:51:24.088Z,100583.34
2022-09-06T19:53:55.952Z,100565.63
2022-09-06T19:56:26.808Z,100551.59
2022-09-06T19:58:56.023Z,100545.88
2022-09-06T20:01:25.277Z,100536.88
2022-09-06T20:03:52.875Z,100564.28
2022-09-06T20:06:19.788Z,100551.03
2022-09-06T20:08:50.682Z,100541.72
2022-09-06T20:11:18.468Z,100514.72
2022-09-06T20:13:45.596Z,100537.38
2022-09-06T20:16:13.295Z,100548.44
2022-09-06T20:18:40.607Z,100562.41
2022-09-06T20:21:08.234Z,100546.94
2022-09-06T20:23:35.539Z,100521.41
2022-09-06T20:26:03.578Z,100544.16
2022-09-06T20:28:30.809Z,100536.31
2022-09-06T20:31:06.646Z,100533.25
2022-09-06T20:33:34.107Z,100492.84
2022-09-06T20:36:03.952Z,100505.13
2022-09-06T20:38:35.853Z,100512.81
2022-09-06T20:41:04.816Z,100515.56
2022-09-06T20:43:34.588Z,100530.41
2022-09-06T20:46:04.340Z,100487.97
2022-09-06T20:48:42.129Z,100483.41
2022-09-06T20:51:13.939Z,100464.03
2022-09-06T20:53:40.884Z,100479.06
2022-09-06T20:56:16.017Z,100522.16
2022-09-06T20:58:47.195Z,100546.59
2022-09-06T21:01:15.949Z,100544.38
2022-09-06T21:03:43.128Z,100539.84
2022-09-06T21:06:12.462Z,100529.91
2022-09-06T21:08:42.873Z,100536.44
2022-09-06T21:11:12.864Z,100520.88
2022-09-06T21:13:40.096Z,100518.56
2022-09-06T21:16:07.696Z,100522.78
2022-09-06T21:18:35.648Z,100537.19
2022-09-06T21:21:05.931Z,100537.09
2022-09-06T21:23:38.456Z,100552.63
2022-09-06T21:26:10.381Z,100508.09
2022-09-06T21:28:39.907Z,100535.63
2022-09-06T21:31:09.922Z,100508.19
2022-09-06T21:33:39.251Z,100475.09
2022-09-06T21:36:08.321Z,100511.66
2022-09-06T21:38:37.155Z,100478.75
2022-09-06T21:41:05.628Z,100509.34
2022-09-06T21:43:35.707Z,100491.78
2022-09-06T21:46:11.376Z,100485.84
2022-09-06T21:48:39.587Z,100509.16
2022-09-06T21:51:13.186Z,100483.66
2022-09-06T21:53:43.514Z,100490.91
2022-09-06T21:56:13.862Z,100479.28
2022-09-06T21:58:40.634Z,100462.78
2022-09-06T22:01:08.606Z,100446.50
2022-09-06T22:03:37.175Z,100470.53
2022-09-06T22:06:15.129Z,100463.25
2022-09-06T22:08:43.919Z,100472.97
2022-09-06T22:11:11.745Z,100499.22
2022-09-06T22:13:38.945Z,100439.63
2022-09-06T22:16:08.005Z,100431.53
2022-09-06T22:18:35.912Z,100461.75
2022-09-06T22:21:05.676Z,100508.50
2022-09-06T22:23:32.551Z,100450.72
2022-09-06T22:26:05.124Z,100505.56
2022-09-06T22:28:31.944Z,100464.59
2022-09-06T22:30:58.864Z,100465.63
2022-09-06T22:33:25.711Z,100469.69
2022-09-06T22:35:52.821Z,100477.50
2022-09-06T22:38:20.330Z,100462.50
2022-09-06T22:40:47.018Z,100468.19
2022-09-06T22:43:15.129Z,100473.47
2022-09-06T22:45:43.651Z,100481.75
2022-09-06T22:48:10.439Z,100479.22
2022-09-06T22:50:37.272Z,100441.44
2022-09-06T22:53:04.078Z,100417.09
2022-09-06T22:55:33.300Z,100476.75
2022-09-06T22:58:00.259Z,100476.16
2022-09-06T23:00:29.914Z,100475.19
2022-09-06T23:02:56.975Z,100473.06
2022-09-06T23:05:23.788Z,100449.84
2022-09-06T23:07:51.271Z,100460.69
2022-09-06T23:10:18.506Z,100453.91
2022-09-06T23:12:45.255Z,100442.19
2022-09-06T23:15:12.169Z,100425.22
2022-09-06T23:17:39.026Z,100432.13
2022-09-06T23:20:06.154Z,100432.31
2022-09-06T23:22:33.281Z,100417.03
2022-09-06T23:24:59.988Z,100422.69
2022-09-06T23:27:26.687Z,100389.78
2022-09-06T23:29:53.664Z,100380.28
2022-09-06T23:32:20.384Z,100412.53
2022-09-06T23:34:47.093Z,100402.19
2022-09-06T23:37:13.783Z,100398.19
2022-09-06T23:39:40.528Z,100375.09
2022-09-06T23:42:07.377Z,100402.41
2022-09-06T23:44:34.051Z,100410.34
2022-09-06T23:47:00.885Z,100440.91
2022-09-06T23:49:27.687Z,100406.97
2022-09-06T23:51:54.399Z,100384.28
2022-09-06T23:54:21.115Z,100394.78
2022-09-06T23:56:47.883Z,100418.59
2022-09-06T23:59:14.678Z,100407.28
